Terminal Aerodrome Forecast
Issued by NWS

Home | Current Version | Previous Version | Graphics & Text | Print | Product List | Glossary On
Versions: 1 2 3 4 5 6 7 8 9 10 11 12 13 14
000
FTUS43 KICT 302340
TAFSLN
TAF
KSLN 302340Z 0100/0124 28013KT P6SM OVC050
     FM010130 29007KT P6SM SCT050
     FM011000 28007KT P6SM OVC035
     FM011300 32013KT P6SM OVC015
     FM011700 35017G22KT P6SM OVC025=

USA.gov is the U.S. government's official web portal to all federal, state and local government web resources and services.